createdAt,value
2022-09-14T00:02:04.959Z,17.30
2022-09-14T00:06:09.352Z,17.30
2022-09-14T00:10:11.219Z,17.10
2022-09-14T00:14:13.474Z,17.20
2022-09-14T00:18:15.419Z,17.30
2022-09-14T00:22:17.261Z,17.20
2022-09-14T00:26:21.291Z,17.10
2022-09-14T00:30:23.776Z,17.20
2022-09-14T00:34:25.739Z,17.30
2022-09-14T00:38:27.704Z,17.20
2022-09-14T00:42:29.568Z,17.40
2022-09-14T00:46:40.312Z,17.40
2022-09-14T00:50:42.288Z,17.10
2022-09-14T00:54:48.926Z,17.40
2022-09-14T00:58:53.495Z,17.50
2022-09-14T01:02:55.650Z,17.50
2022-09-14T01:07:10.869Z,17.70
2022-09-14T01:11:48.252Z,17.80
2022-09-14T01:16:07.997Z,17.50
2022-09-14T01:20:20.663Z,17.30
2022-09-14T01:24:32.887Z,17.10
2022-09-14T01:29:12.257Z,17.20
2022-09-14T01:33:21.981Z,17.20
2022-09-14T01:37:40.174Z,17.10
2022-09-14T01:41:43.534Z,17.20
2022-09-14T01:45:56.148Z,17.30
2022-09-14T01:50:07.048Z,17.30
2022-09-14T01:54:22.227Z,17.40
2022-09-14T01:58:44.245Z,17.40
2022-09-14T02:03:06.756Z,16.90
2022-09-14T02:07:09.051Z,16.70
2022-09-14T02:11:11.119Z,16.80
2022-09-14T02:15:14.795Z,16.80
2022-09-14T02:19:19.405Z,16.80
2022-09-14T02:23:25.571Z,16.70
2022-09-14T02:27:27.417Z,16.90
2022-09-14T02:32:07.978Z,17.00
2022-09-14T02:36:23.248Z,17.00
2022-09-14T02:40:49.253Z,17.10
2022-09-14T02:45:17.822Z,17.00
2022-09-14T02:49:19.664Z,16.90
2022-09-14T02:54:05.716Z,17.20
2022-09-14T02:58:10.682Z,16.80
2022-09-14T03:02:12.690Z,16.90
2022-09-14T03:06:15.294Z,16.80
2022-09-14T03:10:17.192Z,16.80
2022-09-14T03:14:19.080Z,17.00
2022-09-14T03:18:21.032Z,16.70
2022-09-14T03:22:23.119Z,16.60
2022-09-14T03:26:27.452Z,16.60
2022-09-14T03:30:29.533Z,16.60
2022-09-14T03:34:31.475Z,16.70
2022-09-14T03:38:33.505Z,16.90
2022-09-14T03:42:35.644Z,16.90
2022-09-14T03:46:37.681Z,16.60
2022-09-14T03:50:39.575Z,16.70
2022-09-14T03:54:41.513Z,16.80
2022-09-14T03:58:44.739Z,17.00
2022-09-14T04:02:46.698Z,17.30
2022-09-14T04:06:48.675Z,17.40
2022-09-14T04:10:50.584Z,17.10
2022-09-14T04:14:52.487Z,15.20
2022-09-14T04:18:54.812Z,17.10
2022-09-14T04:22:56.677Z,17.10
2022-09-14T04:26:58.700Z,17.10
2022-09-14T04:31:02.521Z,17.30
2022-09-14T04:35:04.761Z,17.30
2022-09-14T04:39:07.159Z,17.40
2022-09-14T04:43:09.018Z,17.40
2022-09-14T04:47:10.832Z,17.30
2022-09-14T04:51:21.356Z,17.20
2022-09-14T04:55:24.288Z,17.10
2022-09-14T04:59:26.205Z,17.10
2022-09-14T05:03:28.129Z,17.20
2022-09-14T05:07:29.970Z,17.50
2022-09-14T05:11:34.579Z,17.60
2022-09-14T05:15:37.035Z,17.50
2022-09-14T05:19:38.927Z,17.40
2022-09-14T05:23:41.077Z,17.50
2022-09-14T05:27:42.922Z,17.20
2022-09-14T05:31:45.627Z,17.10
2022-09-14T05:35:48.461Z,17.10
2022-09-14T05:39:50.415Z,17.20
2022-09-14T05:43:52.309Z,17.40
2022-09-14T05:47:54.190Z,17.40
2022-09-14T05:51:56.069Z,17.40
2022-09-14T05:56:12.900Z,17.20
2022-09-14T06:00:15.517Z,17.20
2022-09-14T06:04:17.409Z,17.30
2022-09-14T06:08:19.245Z,17.40
2022-09-14T06:12:21.658Z,17.50
2022-09-14T06:16:26.619Z,17.40
2022-09-14T06:20:28.475Z,17.30
2022-09-14T06:24:30.920Z,17.50
2022-09-14T06:28:33.638Z,18.00
2022-09-14T06:32:35.496Z,18.30
2022-09-14T06:36:37.378Z,18.70
2022-09-14T06:40:39.260Z,19.00
2022-09-14T06:44:41.137Z,18.80
2022-09-14T06:49:06.961Z,18.50
2022-09-14T06:53:08.787Z,18.40
2022-09-14T06:57:10.658Z,18.00
2022-09-14T07:01:15.112Z,17.90
2022-09-14T07:05:20.339Z,18.00
2022-09-14T07:09:22.274Z,17.90
2022-09-14T07:13:24.222Z,17.90
2022-09-14T07:17:26.043Z,17.80
2022-09-14T07:21:29.115Z,18.00
2022-09-14T07:25:31.002Z,18.30
2022-09-14T07:29:32.901Z,18.50
2022-09-14T07:33:34.726Z,18.90
2022-09-14T07:37:36.599Z,19.10
2022-09-14T07:41:38.941Z,19.30
2022-09-14T07:45:40.975Z,19.60
2022-09-14T07:49:42.847Z,19.70
2022-09-14T07:53:45.747Z,19.50
2022-09-14T07:57:56.017Z,19.70
2022-09-14T08:01:58.302Z,20.00
2022-09-14T08:06:10.925Z,20.30
2022-09-14T08:10:12.892Z,20.50
2022-09-14T08:14:15.602Z,20.90
2022-09-14T08:18:17.464Z,21.20
2022-09-14T08:22:19.396Z,21.50
2022-09-14T08:26:23.503Z,21.80
2022-09-14T08:30:25.424Z,22.50
2022-09-14T08:34:27.469Z,22.90
2022-09-14T08:38:29.594Z,23.20
2022-09-14T08:42:32.086Z,22.90
2022-09-14T08:46:39.069Z,23.20
2022-09-14T08:50:40.967Z,23.70
2022-09-14T08:54:42.864Z,23.30
2022-09-14T08:58:56.510Z,23.20
2022-09-14T09:03:43.577Z,23.00
2022-09-14T09:07:59.421Z,23.40
2022-09-14T09:12:01.625Z,24.10
2022-09-14T09:16:07.621Z,24.20
2022-09-14T09:20:12.431Z,24.50
2022-09-14T09:24:17.215Z,24.80
2022-09-14T09:28:19.976Z,24.80
2022-09-14T09:32:24.874Z,25.40
2022-09-14T09:36:28.036Z,26.60
2022-09-14T09:40:37.239Z,27.60
2022-09-14T09:45:04.289Z,28.20
2022-09-14T09:49:28.579Z,28.10
2022-09-14T09:53:32.909Z,28.30
2022-09-14T09:57:36.708Z,29.50
2022-09-14T10:01:38.629Z,30.40
2022-09-14T10:05:40.668Z,31.10
2022-09-14T10:09:42.664Z,30.70
2022-09-14T10:13:47.628Z,30.60
2022-09-14T10:18:10.144Z,31.20
2022-09-14T10:22:32.261Z,32.20
2022-09-14T10:26:36.240Z,32.60
2022-09-14T10:30:45.260Z,32.80
2022-09-14T10:34:47.155Z,33.10
2022-09-14T10:38:53.190Z,33.10
2022-09-14T10:43:16.959Z,33.30
2022-09-14T10:47:37.644Z,33.10
2022-09-14T10:51:46.891Z,32.70
2022-09-14T10:56:04.916Z,32.70
2022-09-14T11:00:24.751Z,32.80
2022-09-14T11:04:48.012Z,33.50
2022-09-14T11:09:06.890Z,33.90
2022-09-14T11:13:11.573Z,34.20
2022-09-14T11:17:22.351Z,34.20
2022-09-14T11:21:40.922Z,34.30
2022-09-14T11:25:45.508Z,34.30
2022-09-14T11:29:57.475Z,34.20
2022-09-14T11:34:25.939Z,34.30
2022-09-14T11:38:31.746Z,34.60
2022-09-14T11:43:09.996Z,34.60
2022-09-14T11:47:18.658Z,34.60
2022-09-14T11:51:32.500Z,34.60
2022-09-14T11:55:36.068Z,34.40
2022-09-14T11:59:50.467Z,34.60
2022-09-14T12:03:59.870Z,34.50
2022-09-14T12:08:05.415Z,34.40
2022-09-14T12:12:28.314Z,34.50
2022-09-14T12:16:34.410Z,34.30
2022-09-14T12:20:41.923Z,33.90
2022-09-14T12:24:43.898Z,33.50
2022-09-14T12:28:49.116Z,33.40
2022-09-14T12:32:51.573Z,33.10
2022-09-14T12:36:53.644Z,33.00
2022-09-14T12:41:03.431Z,32.80
2022-09-14T12:45:42.701Z,32.50
2022-09-14T12:49:44.774Z,31.60
2022-09-14T12:53:51.916Z,31.60
2022-09-14T12:58:16.871Z,31.60
2022-09-14T13:02:47.643Z,31.40
2022-09-14T13:06:49.932Z,31.40
2022-09-14T13:10:52.600Z,31.30
2022-09-14T13:14:59.705Z,31.10
2022-09-14T13:19:04.757Z,31.00
2022-09-14T13:23:20.976Z,30.60
2022-09-14T13:27:34.966Z,30.50
2022-09-14T13:31:38.904Z,30.30
2022-09-14T13:35:57.182Z,30.10
2022-09-14T13:40:00.057Z,30.00
2022-09-14T13:44:02.281Z,30.00
2022-09-14T13:48:06.112Z,30.00
2022-09-14T13:52:31.033Z,29.80
2022-09-14T13:56:40.629Z,29.50
2022-09-14T14:00:53.991Z,29.30
2022-09-14T14:04:55.838Z,29.20
2022-09-14T14:09:05.426Z,29.10
2022-09-14T14:13:07.315Z,28.90
2022-09-14T14:17:32.972Z,28.80
2022-09-14T14:21:35.000Z,28.70
2022-09-14T14:25:45.786Z,28.50
2022-09-14T14:29:48.299Z,28.40
2022-09-14T14:33:51.656Z,28.30
2022-09-14T14:37:54.635Z,28.10
2022-09-14T14:41:57.333Z,27.90
2022-09-14T14:46:02.690Z,27.90
2022-09-14T14:50:06.325Z,27.80
2022-09-14T14:54:10.236Z,27.70
2022-09-14T14:58:17.431Z,27.30
2022-09-14T15:02:19.173Z,27.20
2022-09-14T15:06:26.587Z,27.40
2022-09-14T15:10:30.561Z,27.60
2022-09-14T15:14:32.412Z,27.70
2022-09-14T15:18:34.285Z,27.90
2022-09-14T15:22:36.541Z,28.00
2022-09-14T15:26:38.626Z,27.90
2022-09-14T15:30:41.723Z,27.70
2022-09-14T15:34:44.103Z,27.70
2022-09-14T15:38:45.967Z,27.50
2022-09-14T15:42:47.843Z,27.10
2022-09-14T15:46:50.650Z,27.00
2022-09-14T15:50:52.539Z,26.90
2022-09-14T15:54:55.218Z,27.00
2022-09-14T15:59:01.433Z,27.10
2022-09-14T16:03:04.402Z,26.80
2022-09-14T16:07:10.051Z,26.50
2022-09-14T16:11:12.059Z,26.40
2022-09-14T16:15:13.971Z,26.20
2022-09-14T16:19:15.847Z,26.00
2022-09-14T16:23:17.805Z,25.90
2022-09-14T16:27:19.790Z,25.80
2022-09-14T16:31:25.333Z,25.70
2022-09-14T16:35:27.533Z,25.50
2022-09-14T16:39:30.086Z,25.10
2022-09-14T16:43:32.736Z,25.00
2022-09-14T16:47:34.598Z,24.70
2022-09-14T16:51:36.651Z,24.60
2022-09-14T16:55:38.518Z,24.60
2022-09-14T16:59:40.597Z,24.60
2022-09-14T17:03:43.767Z,24.60
2022-09-14T17:07:45.630Z,24.40
2022-09-14T17:11:48.689Z,24.40
2022-09-14T17:15:51.013Z,24.30
2022-09-14T17:19:53.082Z,24.10
2022-09-14T17:23:55.352Z,24.00
2022-09-14T17:27:57.207Z,24.00
2022-09-14T17:31:59.110Z,23.90
2022-09-14T17:36:01.711Z,23.90
2022-09-14T17:40:04.000Z,23.60
2022-09-14T17:44:07.304Z,23.50
2022-09-14T17:48:09.261Z,23.30
2022-09-14T17:52:11.076Z,23.20
2022-09-14T17:56:18.049Z,23.10
2022-09-14T18:00:19.890Z,22.90
2022-09-14T18:04:22.894Z,22.50
2022-09-14T18:08:24.758Z,22.10
2022-09-14T18:12:26.832Z,21.80
2022-09-14T18:16:29.089Z,21.70
2022-09-14T18:20:31.015Z,21.70
2022-09-14T18:24:32.911Z,21.60
2022-09-14T18:28:35.927Z,21.40
2022-09-14T18:32:37.859Z,21.30
2022-09-14T18:36:39.874Z,21.30
2022-09-14T18:40:41.805Z,21.30
2022-09-14T18:44:43.682Z,21.40
2022-09-14T18:48:46.026Z,21.50
2022-09-14T18:52:47.916Z,21.50
2022-09-14T18:56:50.377Z,21.60
2022-09-14T19:00:52.879Z,21.40
2022-09-14T19:04:55.546Z,21.30
2022-09-14T19:08:58.497Z,21.40
2022-09-14T19:13:00.331Z,21.60
2022-09-14T19:17:02.176Z,21.40
2022-09-14T19:21:09.706Z,21.10
2022-09-14T19:25:11.573Z,21.10
2022-09-14T19:29:15.631Z,20.70
2022-09-14T19:33:17.481Z,20.40
2022-09-14T19:37:19.371Z,20.40
2022-09-14T19:41:22.026Z,20.30
2022-09-14T19:45:23.876Z,20.20
2022-09-14T19:49:26.490Z,20.20
2022-09-14T19:53:30.296Z,20.30
2022-09-14T19:57:32.551Z,20.20
2022-09-14T20:01:37.025Z,20.10
2022-09-14T20:05:39.024Z,20.00
2022-09-14T20:09:41.334Z,19.70
2022-09-14T20:13:43.272Z,19.50
2022-09-14T20:17:45.122Z,19.50
2022-09-14T20:21:49.127Z,19.50
2022-09-14T20:25:52.581Z,19.60
2022-09-14T20:29:54.434Z,19.50
2022-09-14T20:33:57.295Z,19.50
2022-09-14T20:37:59.129Z,19.40
2022-09-14T20:42:00.975Z,19.30
2022-09-14T20:46:12.228Z,19.40
2022-09-14T20:50:14.224Z,19.40
2022-09-14T20:54:17.811Z,19.20
2022-09-14T20:58:20.426Z,19.20
2022-09-14T21:02:22.352Z,19.10
2022-09-14T21:06:25.821Z,18.90
2022-09-14T21:10:29.544Z,18.90
2022-09-14T21:14:31.517Z,18.80
2022-09-14T21:18:33.418Z,18.60
2022-09-14T21:22:35.255Z,18.40
2022-09-14T21:26:42.375Z,18.30
2022-09-14T21:30:44.681Z,18.30
2022-09-14T21:34:46.623Z,18.40
2022-09-14T21:38:57.396Z,18.40
2022-09-14T21:42:59.262Z,18.30
2022-09-14T21:47:02.476Z,17.90
2022-09-14T21:51:08.774Z,18.10
2022-09-14T21:55:11.770Z,18.10
2022-09-14T21:59:18.296Z,18.00
2022-09-14T22:03:20.180Z,17.80
2022-09-14T22:07:22.011Z,17.70
2022-09-14T22:11:26.729Z,17.70
2022-09-14T22:15:29.454Z,17.80
2022-09-14T22:19:32.259Z,17.60
2022-09-14T22:23:35.381Z,17.50
2022-09-14T22:27:39.357Z,17.70
2022-09-14T22:31:42.766Z,17.80
2022-09-14T22:35:56.079Z,17.80
2022-09-14T22:39:58.007Z,17.70
2022-09-14T22:43:59.997Z,17.60
2022-09-14T22:48:02.118Z,17.50
2022-09-14T22:52:04.205Z,17.60
2022-09-14T22:56:11.898Z,17.70
2022-09-14T23:00:14.212Z,17.70
2022-09-14T23:04:16.078Z,17.60
2022-09-14T23:08:18.398Z,17.70
2022-09-14T23:12:20.259Z,17.70
2022-09-14T23:16:26.193Z,17.60
2022-09-14T23:20:28.427Z,17.60
2022-09-14T23:24:31.013Z,17.60
2022-09-14T23:28:33.488Z,17.60
2022-09-14T23:32:35.365Z,17.70
2022-09-14T23:36:37.248Z,18.00
2022-09-14T23:40:39.104Z,17.90
2022-09-14T23:44:40.964Z,17.90
2022-09-14T23:48:43.184Z,17.80
2022-09-14T23:52:45.113Z,17.80
2022-09-14T23:56:47.022Z,17.70
